sensor_id;sensor_type;location;lat;lon;timestamp;temperature;humidity
12386;DHT22;6257;57.634;18.310;2023-11-19T00:04:46;-2.10;99.90
12386;DHT22;6257;57.634;18.310;2023-11-19T00:09:40;-2.00;99.90
12386;DHT22;6257;57.634;18.310;2023-11-19T00:12:10;-2.00;99.90
12386;DHT22;6257;57.634;18.310;2023-11-19T00:14:38;-2.00;99.90
12386;DHT22;6257;57.634;18.310;2023-11-19T00:17:06;-0.90;99.90
12386;DHT22;6257;57.634;18.310;2023-11-19T00:19:33;-2.10;99.90
12386;DHT22;6257;57.634;18.310;2023-11-19T00:22:00;-2.10;99.90
12386;DHT22;6257;57.634;18.310;2023-11-19T00:24:29;-0.80;99.90
12386;DHT22;6257;57.634;18.310;2023-11-19T00:26:56;-2.20;99.90
12386;DHT22;6257;57.634;18.310;2023-11-19T00:29:24;-2.20;99.90
12386;DHT22;6257;57.634;18.310;2023-11-19T00:31:51;-1.30;99.90
12386;DHT22;6257;57.634;18.310;2023-11-19T00:34:18;-2.10;99.90
12386;DHT22;6257;57.634;18.310;2023-11-19T00:36:48;-1.20;99.90
12386;DHT22;6257;57.634;18.310;2023-11-19T00:39:15;-2.20;99.90
12386;DHT22;6257;57.634;18.310;2023-11-19T00:41:43;-0.90;99.90
12386;DHT22;6257;57.634;18.310;2023-11-19T00:44:11;-2.20;99.90
12386;DHT22;6257;57.634;18.310;2023-11-19T00:49:07;-2.20;99.90
12386;DHT22;6257;57.634;18.310;2023-11-19T00:51:37;-2.20;99.90
12386;DHT22;6257;57.634;18.310;2023-11-19T00:54:04;-2.30;99.90
12386;DHT22;6257;57.634;18.310;2023-11-19T00:56:31;-2.30;99.90
12386;DHT22;6257;57.634;18.310;2023-11-19T00:58:58;-2.30;99.90
12386;DHT22;6257;57.634;18.310;2023-11-19T01:01:26;-2.20;99.90
12386;DHT22;6257;57.634;18.310;2023-11-19T01:06:29;-2.20;99.90
12386;DHT22;6257;57.634;18.310;2023-11-19T01:08:57;-2.20;99.90
12386;DHT22;6257;57.634;18.310;2023-11-19T01:11:25;-2.20;99.90
12386;DHT22;6257;57.634;18.310;2023-11-19T01:13:52;-2.20;99.90
12386;DHT22;6257;57.634;18.310;2023-11-19T01:16:19;-2.20;99.90
12386;DHT22;6257;57.634;18.310;2023-11-19T01:18:47;-2.20;99.90
12386;DHT22;6257;57.634;18.310;2023-11-19T01:21:17;-2.20;99.90
12386;DHT22;6257;57.634;18.310;2023-11-19T01:23:44;-2.10;99.90
12386;DHT22;6257;57.634;18.310;2023-11-19T01:26:11;-2.10;99.90
12386;DHT22;6257;57.634;18.310;2023-11-19T01:28:39;-2.00;99.90
12386;DHT22;6257;57.634;18.310;2023-11-19T01:31:10;-1.90;99.90
12386;DHT22;6257;57.634;18.310;2023-11-19T01:33:38;-0.80;99.90
12386;DHT22;6257;57.634;18.310;2023-11-19T01:36:06;-1.90;99.90
12386;DHT22;6257;57.634;18.310;2023-11-19T01:38:35;-1.90;99.90
12386;DHT22;6257;57.634;18.310;2023-11-19T01:41:03;-0.70;99.90
12386;DHT22;6257;57.634;18.310;2023-11-19T01:43:34;-1.80;99.90
12386;DHT22;6257;57.634;18.310;2023-11-19T01:46:01;-0.30;99.90
12386;DHT22;6257;57.634;18.310;2023-11-19T01:48:29;-1.80;99.90
12386;DHT22;6257;57.634;18.310;2023-11-19T01:50:57;-1.80;99.90
12386;DHT22;6257;57.634;18.310;2023-11-19T01:53:25;-1.80;99.90
12386;DHT22;6257;57.634;18.310;2023-11-19T02:03:15;-1.80;99.90
12386;DHT22;6257;57.634;18.310;2023-11-19T02:05:42;-1.80;99.90
12386;DHT22;6257;57.634;18.310;2023-11-19T02:08:09;-1.80;99.90
12386;DHT22;6257;57.634;18.310;2023-11-19T02:10:39;-1.80;99.90
12386;DHT22;6257;57.634;18.310;2023-11-19T02:13:07;-1.90;99.90
12386;DHT22;6257;57.634;18.310;2023-11-19T02:15:35;-1.90;99.90
12386;DHT22;6257;57.634;18.310;2023-11-19T02:18:21;-1.90;99.90
12386;DHT22;6257;57.634;18.310;2023-11-19T02:20:49;-1.80;99.90
12386;DHT22;6257;57.634;18.310;2023-11-19T02:23:17;-1.80;99.90
12386;DHT22;6257;57.634;18.310;2023-11-19T02:26:00;-1.50;99.90
12386;DHT22;6257;57.634;18.310;2023-11-19T02:30:56;-1.70;99.90
12386;DHT22;6257;57.634;18.310;2023-11-19T02:33:23;-1.70;99.90
12386;DHT22;6257;57.634;18.310;2023-11-19T02:40:46;-1.40;99.90
12386;DHT22;6257;57.634;18.310;2023-11-19T02:43:13;-1.40;99.90
12386;DHT22;6257;57.634;18.310;2023-11-19T02:48:08;-1.30;99.90
12386;DHT22;6257;57.634;18.310;2023-11-19T02:50:35;-1.00;99.90
12386;DHT22;6257;57.634;18.310;2023-11-19T02:55:30;-1.20;99.90
12386;DHT22;6257;57.634;18.310;2023-11-19T03:00:35;-1.00;99.90
12386;DHT22;6257;57.634;18.310;2023-11-19T03:03:09;-0.50;99.90
12386;DHT22;6257;57.634;18.310;2023-11-19T03:05:45;0.00;99.90
12386;DHT22;6257;57.634;18.310;2023-11-19T03:08:14;-0.70;99.90
12386;DHT22;6257;57.634;18.310;2023-11-19T03:10:41;-0.10;99.90
12386;DHT22;6257;57.634;18.310;2023-11-19T03:13:11;-0.60;99.90
12386;DHT22;6257;57.634;18.310;2023-11-19T03:15:40;-0.50;99.90
12386;DHT22;6257;57.634;18.310;2023-11-19T03:18:08;0.20;99.90
12386;DHT22;6257;57.634;18.310;2023-11-19T03:20:35;-0.40;99.90
12386;DHT22;6257;57.634;18.310;2023-11-19T03:23:02;-0.40;99.90
12386;DHT22;6257;57.634;18.310;2023-11-19T03:25:29;-0.10;99.90
12386;DHT22;6257;57.634;18.310;2023-11-19T03:28:00;0.20;99.90
12386;DHT22;6257;57.634;18.310;2023-11-19T03:30:27;-0.20;99.90
12386;DHT22;6257;57.634;18.310;2023-11-19T03:35:24;-0.30;99.90
12386;DHT22;6257;57.634;18.310;2023-11-19T03:37:51;-0.10;99.90
12386;DHT22;6257;57.634;18.310;2023-11-19T03:40:18;-0.20;99.90
12386;DHT22;6257;57.634;18.310;2023-11-19T03:42:45;0.10;99.90
12386;DHT22;6257;57.634;18.310;2023-11-19T03:45:13;-0.10;99.90
12386;DHT22;6257;57.634;18.310;2023-11-19T03:47:41;-0.10;99.90
12386;DHT22;6257;57.634;18.310;2023-11-19T03:50:08;0.00;99.90
12386;DHT22;6257;57.634;18.310;2023-11-19T03:52:37;0.00;99.90
12386;DHT22;6257;57.634;18.310;2023-11-19T03:55:05;0.00;99.90
12386;DHT22;6257;57.634;18.310;2023-11-19T03:57:34;0.00;99.90
12386;DHT22;6257;57.634;18.310;2023-11-19T04:02:34;0.00;99.90
12386;DHT22;6257;57.634;18.310;2023-11-19T04:05:01;0.00;99.90
12386;DHT22;6257;57.634;18.310;2023-11-19T04:07:28;0.20;99.90
12386;DHT22;6257;57.634;18.310;2023-11-19T04:09:57;0.40;99.90
12386;DHT22;6257;57.634;18.310;2023-11-19T04:12:24;0.00;99.90
12386;DHT22;6257;57.634;18.310;2023-11-19T04:14:51;0.40;99.90
12386;DHT22;6257;57.634;18.310;2023-11-19T04:17:18;0.20;99.90
12386;DHT22;6257;57.634;18.310;2023-11-19T04:19:45;0.40;99.90
12386;DHT22;6257;57.634;18.310;2023-11-19T04:24:39;0.00;99.90
12386;DHT22;6257;57.634;18.310;2023-11-19T04:27:11;0.70;99.90
12386;DHT22;6257;57.634;18.310;2023-11-19T04:29:38;-0.10;99.90
12386;DHT22;6257;57.634;18.310;2023-11-19T04:32:05;0.30;99.90
12386;DHT22;6257;57.634;18.310;2023-11-19T04:37:01;-0.10;99.90
12386;DHT22;6257;57.634;18.310;2023-11-19T04:39:29;0.30;99.90
12386;DHT22;6257;57.634;18.310;2023-11-19T04:41:56;0.30;99.90
12386;DHT22;6257;57.634;18.310;2023-11-19T04:44:24;0.00;99.90
12386;DHT22;6257;57.634;18.310;2023-11-19T04:46:51;0.10;99.90
12386;DHT22;6257;57.634;18.310;2023-11-19T04:49:18;0.30;99.90
12386;DHT22;6257;57.634;18.310;2023-11-19T04:51:46;0.30;99.90
12386;DHT22;6257;57.634;18.310;2023-11-19T04:54:13;-0.10;99.90
12386;DHT22;6257;57.634;18.310;2023-11-19T04:56:40;0.00;99.90
12386;DHT22;6257;57.634;18.310;2023-11-19T04:59:11;0.30;99.90
12386;DHT22;6257;57.634;18.310;2023-11-19T05:01:40;-0.10;99.90
12386;DHT22;6257;57.634;18.310;2023-11-19T05:04:07;-0.20;99.90
12386;DHT22;6257;57.634;18.310;2023-11-19T05:09:03;-0.20;99.90
12386;DHT22;6257;57.634;18.310;2023-11-19T05:11:33;-0.20;99.90
12386;DHT22;6257;57.634;18.310;2023-11-19T05:16:29;-0.20;99.90
12386;DHT22;6257;57.634;18.310;2023-11-19T05:21:25;-0.10;99.90
12386;DHT22;6257;57.634;18.310;2023-11-19T05:23:52;0.20;99.90
12386;DHT22;6257;57.634;18.310;2023-11-19T05:28:48;-0.20;99.90
12386;DHT22;6257;57.634;18.310;2023-11-19T05:31:17;-0.20;99.90
12386;DHT22;6257;57.634;18.310;2023-11-19T05:33:44;0.20;99.90
12386;DHT22;6257;57.634;18.310;2023-11-19T05:36:13;0.00;99.90
12386;DHT22;6257;57.634;18.310;2023-11-19T05:38:40;0.10;99.90
12386;DHT22;6257;57.634;18.310;2023-11-19T05:41:07;0.40;99.90
12386;DHT22;6257;57.634;18.310;2023-11-19T05:43:34;0.10;99.90
12386;DHT22;6257;57.634;18.310;2023-11-19T05:46:01;0.40;99.90
12386;DHT22;6257;57.634;18.310;2023-11-19T05:48:28;0.10;99.90
12386;DHT22;6257;57.634;18.310;2023-11-19T05:50:55;0.30;99.90
12386;DHT22;6257;57.634;18.310;2023-11-19T05:58:23;0.40;99.90
12386;DHT22;6257;57.634;18.310;2023-11-19T06:03:19;0.50;99.90
12386;DHT22;6257;57.634;18.310;2023-11-19T06:05:47;0.50;99.90
12386;DHT22;6257;57.634;18.310;2023-11-19T06:08:14;0.60;99.90
12386;DHT22;6257;57.634;18.310;2023-11-19T06:10:44;1.40;99.90
12386;DHT22;6257;57.634;18.310;2023-11-19T06:13:11;0.70;99.90
12386;DHT22;6257;57.634;18.310;2023-11-19T06:15:40;0.70;99.90
12386;DHT22;6257;57.634;18.310;2023-11-19T06:18:08;0.80;99.90
12386;DHT22;6257;57.634;18.310;2023-11-19T06:20:35;0.80;99.90
12386;DHT22;6257;57.634;18.310;2023-11-19T06:25:30;0.90;99.90
12386;DHT22;6257;57.634;18.310;2023-11-19T06:30:25;1.00;99.90
12386;DHT22;6257;57.634;18.310;2023-11-19T06:32:54;1.00;99.90
12386;DHT22;6257;57.634;18.310;2023-11-19T06:37:48;1.10;99.90
12386;DHT22;6257;57.634;18.310;2023-11-19T06:40:17;1.10;99.90
12386;DHT22;6257;57.634;18.310;2023-11-19T06:42:44;1.10;99.90
12386;DHT22;6257;57.634;18.310;2023-11-19T06:45:12;1.20;99.90
12386;DHT22;6257;57.634;18.310;2023-11-19T06:47:40;1.20;99.90
12386;DHT22;6257;57.634;18.310;2023-11-19T06:50:07;1.20;99.90
12386;DHT22;6257;57.634;18.310;2023-11-19T06:52:35;1.20;99.90
12386;DHT22;6257;57.634;18.310;2023-11-19T06:55:04;1.30;99.90
12386;DHT22;6257;57.634;18.310;2023-11-19T06:57:32;1.20;99.90
12386;DHT22;6257;57.634;18.310;2023-11-19T06:59:59;1.40;99.90
12386;DHT22;6257;57.634;18.310;2023-11-19T07:04:56;1.10;99.90
12386;DHT22;6257;57.634;18.310;2023-11-19T07:07:23;1.40;99.90
12386;DHT22;6257;57.634;18.310;2023-11-19T07:09:50;1.10;99.90
12386;DHT22;6257;57.634;18.310;2023-11-19T07:14:45;1.00;99.90
12386;DHT22;6257;57.634;18.310;2023-11-19T07:17:12;1.00;99.90
12386;DHT22;6257;57.634;18.310;2023-11-19T07:22:08;1.00;99.90
12386;DHT22;6257;57.634;18.310;2023-11-19T07:24:39;1.10;99.90
12386;DHT22;6257;57.634;18.310;2023-11-19T07:27:06;1.10;99.90
12386;DHT22;6257;57.634;18.310;2023-11-19T07:29:34;1.50;99.90
12386;DHT22;6257;57.634;18.310;2023-11-19T07:32:01;1.20;99.90
12386;DHT22;6257;57.634;18.310;2023-11-19T07:34:28;1.20;99.90
12386;DHT22;6257;57.634;18.310;2023-11-19T07:39:27;1.30;99.90
12386;DHT22;6257;57.634;18.310;2023-11-19T07:51:44;1.50;99.90
12386;DHT22;6257;57.634;18.310;2023-11-19T07:54:13;1.50;99.90
12386;DHT22;6257;57.634;18.310;2023-11-19T07:56:40;1.50;99.90
12386;DHT22;6257;57.634;18.310;2023-11-19T07:59:07;1.70;99.90
12386;DHT22;6257;57.634;18.310;2023-11-19T08:01:34;1.70;99.90
12386;DHT22;6257;57.634;18.310;2023-11-19T08:04:01;1.70;99.90
12386;DHT22;6257;57.634;18.310;2023-11-19T08:06:29;1.80;99.90
12386;DHT22;6257;57.634;18.310;2023-11-19T08:11:25;1.80;99.90
12386;DHT22;6257;57.634;18.310;2023-11-19T08:13:52;1.80;99.90
12386;DHT22;6257;57.634;18.310;2023-11-19T08:16:19;1.90;99.90
12386;DHT22;6257;57.634;18.310;2023-11-19T08:21:13;1.90;99.90
12386;DHT22;6257;57.634;18.310;2023-11-19T08:23:40;2.00;99.90
12386;DHT22;6257;57.634;18.310;2023-11-19T08:26:08;2.00;99.90
12386;DHT22;6257;57.634;18.310;2023-11-19T08:28:37;2.00;99.90
12386;DHT22;6257;57.634;18.310;2023-11-19T08:31:04;2.00;99.90
12386;DHT22;6257;57.634;18.310;2023-11-19T08:33:31;2.00;99.90
12386;DHT22;6257;57.634;18.310;2023-11-19T08:35:58;2.00;99.90
12386;DHT22;6257;57.634;18.310;2023-11-19T08:38:26;2.00;99.90
12386;DHT22;6257;57.634;18.310;2023-11-19T08:40:53;2.10;99.90
12386;DHT22;6257;57.634;18.310;2023-11-19T08:43:25;2.10;99.90
12386;DHT22;6257;57.634;18.310;2023-11-19T08:45:53;2.00;99.90
12386;DHT22;6257;57.634;18.310;2023-11-19T08:48:20;2.00;99.90
12386;DHT22;6257;57.634;18.310;2023-11-19T08:50:47;2.10;99.90
12386;DHT22;6257;57.634;18.310;2023-11-19T08:53:14;2.00;99.90
12386;DHT22;6257;57.634;18.310;2023-11-19T08:55:41;2.10;99.90
12386;DHT22;6257;57.634;18.310;2023-11-19T08:58:08;2.10;99.90
12386;DHT22;6257;57.634;18.310;2023-11-19T09:00:37;2.10;99.90
12386;DHT22;6257;57.634;18.310;2023-11-19T09:08:06;2.10;99.90
12386;DHT22;6257;57.634;18.310;2023-11-19T09:10:34;2.10;99.90
12386;DHT22;6257;57.634;18.310;2023-11-19T09:13:01;2.10;99.90
12386;DHT22;6257;57.634;18.310;2023-11-19T09:16:05;2.10;99.90
12386;DHT22;6257;57.634;18.310;2023-11-19T09:18:33;2.10;99.90
12386;DHT22;6257;57.634;18.310;2023-11-19T09:21:00;2.10;99.90
12386;DHT22;6257;57.634;18.310;2023-11-19T09:23:28;2.20;99.90
12386;DHT22;6257;57.634;18.310;2023-11-19T09:25:58;2.20;99.90
12386;DHT22;6257;57.634;18.310;2023-11-19T09:28:25;2.20;99.90
12386;DHT22;6257;57.634;18.310;2023-11-19T09:33:21;2.30;99.90
12386;DHT22;6257;57.634;18.310;2023-11-19T09:38:17;2.40;99.90
12386;DHT22;6257;57.634;18.310;2023-11-19T09:40:44;2.40;99.90
12386;DHT22;6257;57.634;18.310;2023-11-19T09:43:11;2.50;99.90
12386;DHT22;6257;57.634;18.310;2023-11-19T09:45:47;2.50;99.90
12386;DHT22;6257;57.634;18.310;2023-11-19T09:48:16;2.50;99.90
12386;DHT22;6257;57.634;18.310;2023-11-19T09:50:45;2.60;99.90
12386;DHT22;6257;57.634;18.310;2023-11-19T09:53:15;2.60;99.90
12386;DHT22;6257;57.634;18.310;2023-11-19T09:55:42;2.60;99.90
12386;DHT22;6257;57.634;18.310;2023-11-19T09:58:12;2.70;99.90
12386;DHT22;6257;57.634;18.310;2023-11-19T10:00:40;2.80;99.90
12386;DHT22;6257;57.634;18.310;2023-11-19T10:03:10;2.80;99.90
12386;DHT22;6257;57.634;18.310;2023-11-19T10:05:37;2.80;99.90
12386;DHT22;6257;57.634;18.310;2023-11-19T10:08:05;2.90;99.90
12386;DHT22;6257;57.634;18.310;2023-11-19T10:10:34;2.90;99.90
12386;DHT22;6257;57.634;18.310;2023-11-19T10:13:01;3.00;99.90
12386;DHT22;6257;57.634;18.310;2023-11-19T10:15:35;3.10;99.90
12386;DHT22;6257;57.634;18.310;2023-11-19T10:18:03;3.10;99.90
12386;DHT22;6257;57.634;18.310;2023-11-19T10:20:35;3.10;99.90
12386;DHT22;6257;57.634;18.310;2023-11-19T10:23:03;3.20;99.90
12386;DHT22;6257;57.634;18.310;2023-11-19T10:25:30;3.30;99.90
12386;DHT22;6257;57.634;18.310;2023-11-19T10:27:59;3.30;99.90
12386;DHT22;6257;57.634;18.310;2023-11-19T10:30:27;3.40;99.90
12386;DHT22;6257;57.634;18.310;2023-11-19T10:33:13;3.40;99.90
12386;DHT22;6257;57.634;18.310;2023-11-19T10:35:52;3.60;99.90
12386;DHT22;6257;57.634;18.310;2023-11-19T10:38:20;3.60;99.90
12386;DHT22;6257;57.634;18.310;2023-11-19T10:40:48;3.70;99.90
12386;DHT22;6257;57.634;18.310;2023-11-19T10:43:18;3.70;99.90
12386;DHT22;6257;57.634;18.310;2023-11-19T10:45:45;3.70;99.90
12386;DHT22;6257;57.634;18.310;2023-11-19T10:48:12;3.70;99.90
12386;DHT22;6257;57.634;18.310;2023-11-19T10:50:40;3.70;99.90
12386;DHT22;6257;57.634;18.310;2023-11-19T10:53:08;3.80;99.90
12386;DHT22;6257;57.634;18.310;2023-11-19T10:55:37;3.80;99.90
12386;DHT22;6257;57.634;18.310;2023-11-19T10:58:05;3.70;99.90
12386;DHT22;6257;57.634;18.310;2023-11-19T11:00:38;3.80;99.90
12386;DHT22;6257;57.634;18.310;2023-11-19T11:03:11;3.80;99.90
12386;DHT22;6257;57.634;18.310;2023-11-19T11:05:42;3.80;99.90
12386;DHT22;6257;57.634;18.310;2023-11-19T11:08:10;3.80;99.90
12386;DHT22;6257;57.634;18.310;2023-11-19T11:10:42;3.80;99.90
12386;DHT22;6257;57.634;18.310;2023-11-19T11:15:40;3.90;99.90
12386;DHT22;6257;57.634;18.310;2023-11-19T11:18:09;3.80;99.90
12386;DHT22;6257;57.634;18.310;2023-11-19T11:26:22;3.90;99.90
12386;DHT22;6257;57.634;18.310;2023-11-19T11:28:56;3.90;99.90
12386;DHT22;6257;57.634;18.310;2023-11-19T11:31:35;4.00;99.90
12386;DHT22;6257;57.634;18.310;2023-11-19T11:34:27;3.90;99.90
12386;DHT22;6257;57.634;18.310;2023-11-19T11:37:16;3.90;99.90
12386;DHT22;6257;57.634;18.310;2023-11-19T11:39:46;3.90;99.90
12386;DHT22;6257;57.634;18.310;2023-11-19T11:50:30;3.90;99.90
12386;DHT22;6257;57.634;18.310;2023-11-19T11:58:25;4.00;99.90
12386;DHT22;6257;57.634;18.310;2023-11-19T12:00:52;4.00;99.90
12386;DHT22;6257;57.634;18.310;2023-11-19T12:03:20;4.00;99.90
12386;DHT22;6257;57.634;18.310;2023-11-19T12:13:47;4.00;99.90
12386;DHT22;6257;57.634;18.310;2023-11-19T12:21:12;4.00;99.90
12386;DHT22;6257;57.634;18.310;2023-11-19T12:23:54;3.90;99.90
12386;DHT22;6257;57.634;18.310;2023-11-19T12:26:34;4.00;99.90
12386;DHT22;6257;57.634;18.310;2023-11-19T12:29:01;4.00;99.90
12386;DHT22;6257;57.634;18.310;2023-11-19T12:31:32;4.00;99.90
12386;DHT22;6257;57.634;18.310;2023-11-19T12:34:10;4.00;99.90
12386;DHT22;6257;57.634;18.310;2023-11-19T12:39:10;4.00;99.90
12386;DHT22;6257;57.634;18.310;2023-11-19T12:41:53;4.00;99.90
12386;DHT22;6257;57.634;18.310;2023-11-19T12:44:21;3.90;99.90
12386;DHT22;6257;57.634;18.310;2023-11-19T12:47:00;3.90;99.90
12386;DHT22;6257;57.634;18.310;2023-11-19T12:49:27;4.00;99.90
12386;DHT22;6257;57.634;18.310;2023-11-19T12:51:55;4.00;99.90
12386;DHT22;6257;57.634;18.310;2023-11-19T12:54:32;4.00;99.90
12386;DHT22;6257;57.634;18.310;2023-11-19T12:56:59;4.00;99.90
12386;DHT22;6257;57.634;18.310;2023-11-19T12:59:26;4.00;99.90
12386;DHT22;6257;57.634;18.310;2023-11-19T13:04:22;3.90;99.90
12386;DHT22;6257;57.634;18.310;2023-11-19T13:06:50;3.90;99.90
12386;DHT22;6257;57.634;18.310;2023-11-19T13:09:25;3.80;99.90
12386;DHT22;6257;57.634;18.310;2023-11-19T13:11:53;3.80;99.90
12386;DHT22;6257;57.634;18.310;2023-11-19T13:14:20;3.80;99.90
12386;DHT22;6257;57.634;18.310;2023-11-19T13:16:47;3.70;99.90
12386;DHT22;6257;57.634;18.310;2023-11-19T13:19:15;3.70;99.90
12386;DHT22;6257;57.634;18.310;2023-11-19T13:21:44;3.60;99.90
12386;DHT22;6257;57.634;18.310;2023-11-19T13:24:14;3.60;99.90
12386;DHT22;6257;57.634;18.310;2023-11-19T13:26:42;3.50;99.90
12386;DHT22;6257;57.634;18.310;2023-11-19T13:29:09;3.50;99.90
12386;DHT22;6257;57.634;18.310;2023-11-19T13:31:36;3.40;99.90
12386;DHT22;6257;57.634;18.310;2023-11-19T13:34:04;3.40;99.90
12386;DHT22;6257;57.634;18.310;2023-11-19T13:36:32;3.40;99.90
12386;DHT22;6257;57.634;18.310;2023-11-19T13:38:59;3.40;99.90
12386;DHT22;6257;57.634;18.310;2023-11-19T13:41:27;3.40;99.90
12386;DHT22;6257;57.634;18.310;2023-11-19T13:43:55;3.40;99.90
12386;DHT22;6257;57.634;18.310;2023-11-19T13:46:22;3.30;99.90
12386;DHT22;6257;57.634;18.310;2023-11-19T13:48:49;3.30;99.90
12386;DHT22;6257;57.634;18.310;2023-11-19T13:51:16;3.30;99.90
12386;DHT22;6257;57.634;18.310;2023-11-19T13:53:43;3.30;99.90
12386;DHT22;6257;57.634;18.310;2023-11-19T13:56:10;3.30;99.90
12386;DHT22;6257;57.634;18.310;2023-11-19T13:58:37;3.30;99.90
12386;DHT22;6257;57.634;18.310;2023-11-19T14:01:07;3.20;99.90
12386;DHT22;6257;57.634;18.310;2023-11-19T14:03:35;3.20;99.90
12386;DHT22;6257;57.634;18.310;2023-11-19T14:06:02;3.10;99.90
12386;DHT22;6257;57.634;18.310;2023-11-19T14:20:20;2.70;99.90
12386;DHT22;6257;57.634;18.310;2023-11-19T14:22:47;2.70;99.90
12386;DHT22;6257;57.634;18.310;2023-11-19T14:27:43;2.60;99.90
12386;DHT22;6257;57.634;18.310;2023-11-19T14:30:12;2.60;99.90
12386;DHT22;6257;57.634;18.310;2023-11-19T14:37:37;2.60;99.90
12386;DHT22;6257;57.634;18.310;2023-11-19T14:42:32;2.60;99.90
12386;DHT22;6257;57.634;18.310;2023-11-19T14:44:59;2.60;99.90
12386;DHT22;6257;57.634;18.310;2023-11-19T14:57:22;2.50;99.90
12386;DHT22;6257;57.634;18.310;2023-11-19T15:02:16;2.50;99.90
12386;DHT22;6257;57.634;18.310;2023-11-19T15:17:03;2.60;99.90
12386;DHT22;6257;57.634;18.310;2023-11-19T15:22:00;2.60;99.90
12386;DHT22;6257;57.634;18.310;2023-11-19T15:24:30;2.50;99.90
12386;DHT22;6257;57.634;18.310;2023-11-19T15:26:57;2.50;99.90
12386;DHT22;6257;57.634;18.310;2023-11-19T15:31:54;2.40;99.90
12386;DHT22;6257;57.634;18.310;2023-11-19T15:36:48;2.30;99.90
12386;DHT22;6257;57.634;18.310;2023-11-19T15:39:15;2.30;99.90
12386;DHT22;6257;57.634;18.310;2023-11-19T15:41:42;2.20;99.90
12386;DHT22;6257;57.634;18.310;2023-11-19T15:44:09;2.20;99.90
12386;DHT22;6257;57.634;18.310;2023-11-19T15:46:40;2.20;99.90
12386;DHT22;6257;57.634;18.310;2023-11-19T15:49:07;2.20;99.90
12386;DHT22;6257;57.634;18.310;2023-11-19T15:51:34;2.20;99.90
12386;DHT22;6257;57.634;18.310;2023-11-19T15:54:01;2.10;99.90
12386;DHT22;6257;57.634;18.310;2023-11-19T15:58:58;2.10;99.90
12386;DHT22;6257;57.634;18.310;2023-11-19T16:03:55;2.10;99.90
12386;DHT22;6257;57.634;18.310;2023-11-19T16:13:44;2.00;99.90
12386;DHT22;6257;57.634;18.310;2023-11-19T16:21:10;1.90;99.90
12386;DHT22;6257;57.634;18.310;2023-11-19T16:31:00;1.80;99.90
12386;DHT22;6257;57.634;18.310;2023-11-19T16:35:56;1.70;99.90
12386;DHT22;6257;57.634;18.310;2023-11-19T16:51:09;1.30;99.90
12386;DHT22;6257;57.634;18.310;2023-11-19T16:53:43;1.30;99.90
12386;DHT22;6257;57.634;18.310;2023-11-19T16:58:39;1.30;99.90
12386;DHT22;6257;57.634;18.310;2023-11-19T17:01:27;1.30;99.90
12386;DHT22;6257;57.634;18.310;2023-11-19T17:50:05;0.90;99.90
12386;DHT22;6257;57.634;18.310;2023-11-19T18:05:18;1.10;99.90
12386;DHT22;6257;57.634;18.310;2023-11-19T18:12:42;1.30;99.90
12386;DHT22;6257;57.634;18.310;2023-11-19T18:15:10;1.30;99.90
12386;DHT22;6257;57.634;18.310;2023-11-19T18:17:39;1.30;99.90
12386;DHT22;6257;57.634;18.310;2023-11-19T18:27:35;1.30;99.90
12386;DHT22;6257;57.634;18.310;2023-11-19T18:35:01;1.40;99.90
12386;DHT22;6257;57.634;18.310;2023-11-19T18:37:30;1.40;99.90
12386;DHT22;6257;57.634;18.310;2023-11-19T18:39:57;1.40;99.90
12386;DHT22;6257;57.634;18.310;2023-11-19T18:55:13;1.40;99.90
12386;DHT22;6257;57.634;18.310;2023-11-19T18:57:40;1.40;99.90
12386;DHT22;6257;57.634;18.310;2023-11-19T19:17:25;1.60;99.90
12386;DHT22;6257;57.634;18.310;2023-11-19T19:19:52;1.60;99.90
12386;DHT22;6257;57.634;18.310;2023-11-19T19:22:19;1.60;99.90
12386;DHT22;6257;57.634;18.310;2023-11-19T19:24:48;1.60;99.90
12386;DHT22;6257;57.634;18.310;2023-11-19T19:27:16;1.60;99.90
12386;DHT22;6257;57.634;18.310;2023-11-19T19:37:05;1.50;99.90
12386;DHT22;6257;57.634;18.310;2023-11-19T19:51:52;1.10;99.90
12386;DHT22;6257;57.634;18.310;2023-11-19T19:54:19;1.00;99.90
12386;DHT22;6257;57.634;18.310;2023-11-19T19:56:47;0.90;99.90
12386;DHT22;6257;57.634;18.310;2023-11-19T19:59:16;0.90;99.90
12386;DHT22;6257;57.634;18.310;2023-11-19T20:01:44;0.90;99.90
12386;DHT22;6257;57.634;18.310;2023-11-19T20:04:16;0.90;99.90
12386;DHT22;6257;57.634;18.310;2023-11-19T20:06:44;0.90;99.90
12386;DHT22;6257;57.634;18.310;2023-11-19T20:09:11;1.40;99.90
12386;DHT22;6257;57.634;18.310;2023-11-19T20:11:39;1.10;99.90
12386;DHT22;6257;57.634;18.310;2023-11-19T20:14:09;1.30;99.90
12386;DHT22;6257;57.634;18.310;2023-11-19T20:16:38;0.80;99.90
12386;DHT22;6257;57.634;18.310;2023-11-19T20:19:05;0.70;99.90
12386;DHT22;6257;57.634;18.310;2023-11-19T20:21:32;0.70;99.90
12386;DHT22;6257;57.634;18.310;2023-11-19T20:24:01;1.30;99.90
12386;DHT22;6257;57.634;18.310;2023-11-19T20:26:30;0.60;99.90
12386;DHT22;6257;57.634;18.310;2023-11-19T20:28:57;0.60;99.90
12386;DHT22;6257;57.634;18.310;2023-11-19T20:31:24;1.40;99.90
12386;DHT22;6257;57.634;18.310;2023-11-19T20:33:53;1.30;99.90
12386;DHT22;6257;57.634;18.310;2023-11-19T20:38:47;0.50;99.90
12386;DHT22;6257;57.634;18.310;2023-11-19T20:41:17;0.50;99.90
12386;DHT22;6257;57.634;18.310;2023-11-19T20:43:45;0.40;99.90
12386;DHT22;6257;57.634;18.310;2023-11-19T20:46:12;0.40;99.90
12386;DHT22;6257;57.634;18.310;2023-11-19T20:48:39;0.40;99.90
12386;DHT22;6257;57.634;18.310;2023-11-19T20:51:07;1.30;99.90
12386;DHT22;6257;57.634;18.310;2023-11-19T20:53:35;0.30;99.90
12386;DHT22;6257;57.634;18.310;2023-11-19T20:56:05;0.40;99.90
12386;DHT22;6257;57.634;18.310;2023-11-19T21:01:00;0.30;99.90
12386;DHT22;6257;57.634;18.310;2023-11-19T21:08:24;0.30;99.90
12386;DHT22;6257;57.634;18.310;2023-11-19T21:13:19;0.30;99.90
12386;DHT22;6257;57.634;18.310;2023-11-19T21:18:15;0.20;99.90
12386;DHT22;6257;57.634;18.310;2023-11-19T21:23:10;0.20;99.90
12386;DHT22;6257;57.634;18.310;2023-11-19T21:30:34;0.20;99.90
12386;DHT22;6257;57.634;18.310;2023-11-19T21:33:01;0.10;99.90
12386;DHT22;6257;57.634;18.310;2023-11-19T21:35:29;1.30;99.90
12386;DHT22;6257;57.634;18.310;2023-11-19T21:37:58;1.40;99.90
12386;DHT22;6257;57.634;18.310;2023-11-19T21:40:25;0.80;99.90
12386;DHT22;6257;57.634;18.310;2023-11-19T21:45:21;-0.10;99.90
12386;DHT22;6257;57.634;18.310;2023-11-19T21:47:48;0.00;99.90
12386;DHT22;6257;57.634;18.310;2023-11-19T21:50:16;0.00;99.90
12386;DHT22;6257;57.634;18.310;2023-11-19T21:52:43;0.00;99.90
12386;DHT22;6257;57.634;18.310;2023-11-19T21:55:11;0.20;99.90
12386;DHT22;6257;57.634;18.310;2023-11-19T21:57:38;0.10;99.90
12386;DHT22;6257;57.634;18.310;2023-11-19T22:00:10;1.30;99.90
12386;DHT22;6257;57.634;18.310;2023-11-19T22:02:41;0.10;99.90
12386;DHT22;6257;57.634;18.310;2023-11-19T22:05:08;0.50;99.90
12386;DHT22;6257;57.634;18.310;2023-11-19T22:07:36;1.30;99.90
12386;DHT22;6257;57.634;18.310;2023-11-19T22:10:03;1.30;99.90
12386;DHT22;6257;57.634;18.310;2023-11-19T22:14:58;0.10;99.90
12386;DHT22;6257;57.634;18.310;2023-11-19T22:19:54;0.10;99.90
12386;DHT22;6257;57.634;18.310;2023-11-19T22:22:21;0.10;99.90
12386;DHT22;6257;57.634;18.310;2023-11-19T22:24:48;0.10;99.90